Time;durP1;ratioP1;P1;durP2;ratioP2;P2;SDS_P1;SDS_P2;PMS_P1;PMS_P2;Temp;Humidity;BMP_temperature;BMP_pressure;BME280_temperature;BME280_humidity;BME280_pressure;Samples;Min_cycle;Max_cycle;Signal;HPM_P1;HPM_P2
2023/03/28 00:00:42;;;;;;;4.65;2.78;;;;;;;;;;5028001;28;20033;-56
2023/03/28 00:03:07;;;;;;;4.03;1.90;;;;;;;;;;5028048;28;20087;-58
2023/03/28 00:05:33;;;;;;;4.07;1.80;;;;;;;;;;5027922;28;20036;-58
2023/03/28 00:07:58;;;;;;;4.43;2.33;;;;;;;;;;5027703;28;20018;-56
2023/03/28 00:10:24;;;;;;;4.75;3.13;;;;;;;;;;5027737;28;20469;-57
2023/03/28 00:12:50;;;;;;;3.80;2.15;;;;;;;;;;5027942;28;20105;-58
2023/03/28 00:15:16;;;;;;;4.07;2.30;;;;;;;;;;5027644;28;20022;-56
2023/03/28 00:17:42;;;;;;;3.65;2.13;;;;;;;;;;5028025;28;20123;-54
2023/03/28 00:20:11;;;;;;;4.05;2.58;;;;;;;;;;5027357;28;20056;-58
2023/03/28 00:22:37;;;;;;;6.35;2.15;;;;;;;;;;5027602;28;20029;-58
2023/03/28 00:25:06;;;;;;;3.03;1.88;;;;;;;;;;5027507;28;20040;-56
2023/03/28 00:27:32;;;;;;;;;;;;;;;;;;5027837;28;20021;-59
2023/03/28 00:29:57;;;;;;;3.10;1.77;;;;;;;;;;5027291;28;19916;-58
2023/03/28 00:32:23;;;;;;;3.67;2.05;;;;;;;;;;5027185;28;20415;-57
2023/03/28 00:34:48;;;;;;;3.05;1.90;;;;;;;;;;5041727;28;20033;-59
2023/03/28 00:37:16;;;;;;;3.42;1.80;;;;;;;;;;5027300;28;20498;-59
2023/03/28 00:39:42;;;;;;;3.35;1.67;;;;;;;;;;5027310;28;20440;-56
2023/03/28 00:42:11;;;;;;;3.33;1.90;;;;;;;;;;5027184;28;20018;-58
2023/03/28 00:44:44;;;;;;;3.35;2.15;;;;;;;;;;5027067;28;20052;-58
2023/03/28 00:47:20;;;;;;;2.50;1.90;;;;;;;;;;5026916;28;20501;-58
2023/03/28 00:49:48;;;;;;;2.00;1.80;;;;;;;;;;5026855;28;20036;-58
2023/03/28 00:52:15;;;;;;;4.87;1.73;;;;;;;;;;5027600;28;20039;-58
2023/03/28 00:54:40;;;;;;;3.55;1.73;;;;;;;;;;5026466;28;20072;-57
2023/03/28 00:57:06;;;;;;;5.07;1.65;;;;;;;;;;5027028;28;20445;-58
2023/03/28 00:59:33;;;;;;;4.18;2.03;;;;;;;;;;5026408;28;20022;-58
2023/03/28 01:01:58;;;;;;;4.32;1.83;;;;;;;;;;5026727;28;20017;-58
2023/03/28 01:04:26;;;;;;;4.40;2.08;;;;;;;;;;5026647;28;20025;-58
2023/03/28 01:06:53;;;;;;;4.40;2.15;;;;;;;;;;5043604;28;20036;-54
2023/03/28 01:09:20;;;;;;;4.78;2.20;;;;;;;;;;5043533;28;20044;-58
2023/03/28 01:11:45;;;;;;;2.72;1.73;;;;;;;;;;5043443;28;20581;-57
2023/03/28 01:14:12;;;;;;;6.95;1.90;;;;;;;;;;5043721;28;20083;-55
2023/03/28 01:16:40;;;;;;;3.08;1.73;;;;;;;;;;5043364;28;20029;-57
2023/03/28 01:19:09;;;;;;;4.95;2.08;;;;;;;;;;5043418;28;20191;-57
2023/03/28 01:21:47;;;;;;;3.63;2.05;;;;;;;;;;5043073;28;20302;-55
2023/03/28 01:24:30;;;;;;;2.60;1.90;;;;;;;;;;5043589;28;20029;-59
2023/03/28 01:27:06;;;;;;;2.95;1.88;;;;;;;;;;5043227;28;20048;-59
2023/03/28 01:29:34;;;;;;;3.22;1.80;;;;;;;;;;5043278;28;20445;-57
2023/03/28 01:32:03;;;;;;;3.15;2.20;;;;;;;;;;5042967;28;20509;-55
2023/03/28 01:34:47;;;;;;;4.82;2.05;;;;;;;;;;5043003;28;20493;-57
2023/03/28 01:37:15;;;;;;;3.75;1.98;;;;;;;;;;5039477;28;20347;-56
2023/03/28 01:39:40;;;;;;;3.37;2.20;;;;;;;;;;5025949;28;20131;-57
2023/03/28 01:42:05;;;;;;;3.50;1.88;;;;;;;;;;5025983;28;20612;-57
2023/03/28 01:44:36;;;;;;;4.15;2.08;;;;;;;;;;5026363;28;20064;-58
2023/03/28 01:47:04;;;;;;;3.67;1.70;;;;;;;;;;5025920;28;20063;-58
2023/03/28 01:49:36;;;;;;;2.85;2.20;;;;;;;;;;5026214;28;20055;-58
2023/03/28 01:52:02;;;;;;;6.88;2.10;;;;;;;;;;5025925;28;20037;-57
2023/03/28 01:54:28;;;;;;;5.20;2.15;;;;;;;;;;5039907;28;20112;-59
2023/03/28 01:57:01;;;;;;;2.70;1.90;;;;;;;;;;5025902;28;20467;-59
2023/03/28 01:59:29;;;;;;;7.03;2.10;;;;;;;;;;5025482;28;20653;-57
2023/03/28 02:02:02;;;;;;;3.55;2.00;;;;;;;;;;5025807;28;20077;-58
2023/03/28 02:04:29;;;;;;;4.20;2.03;;;;;;;;;;5025390;28;20021;-58
2023/03/28 02:06:54;;;;;;;6.05;2.22;;;;;;;;;;5024776;28;20350;-58
2023/03/28 02:09:21;;;;;;;2.38;2.10;;;;;;;;;;5025241;28;20321;-58
2023/03/28 02:11:48;;;;;;;3.42;1.95;;;;;;;;;;5025479;28;20029;-54
2023/03/28 02:14:17;;;;;;;3.15;1.80;;;;;;;;;;5025218;28;20044;-57
2023/03/28 02:16:43;;;;;;;4.43;2.13;;;;;;;;;;5025122;28;20025;-54
2023/03/28 02:19:10;;;;;;;8.77;2.40;;;;;;;;;;5025383;28;20067;-57
2023/03/28 02:21:47;;;;;;;3.30;2.17;;;;;;;;;;5024812;28;20036;-57
2023/03/28 02:24:13;;;;;;;5.65;2.53;;;;;;;;;;5025054;28;20463;-56
2023/03/28 02:26:38;;;;;;;4.70;2.40;;;;;;;;;;5039125;28;20021;-56
2023/03/28 02:29:05;;;;;;;3.40;2.03;;;;;;;;;;5025174;28;20099;-56
2023/03/28 02:31:31;;;;;;;3.78;2.17;;;;;;;;;;5024816;28;20404;-56
2023/03/28 02:33:57;;;;;;;5.82;2.85;;;;;;;;;;5025264;28;20176;-58
2023/03/28 02:36:37;;;;;;;5.20;1.90;;;;;;;;;;5024708;28;20511;-58
2023/03/28 02:39:05;;;;;;;1.88;1.50;;;;;;;;;;5024847;28;20029;-58
2023/03/28 02:41:48;;;;;;;3.95;2.15;;;;;;;;;;5024753;28;20503;-55
2023/03/28 02:44:13;;;;;;;5.18;2.30;;;;;;;;;;5024869;28;20425;-55
2023/03/28 02:46:41;;;;;;;6.72;2.55;;;;;;;;;;5024418;28;20029;-58
2023/03/28 02:49:36;;;;;;;4.95;2.42;;;;;;;;;;5024664;28;20113;-58
2023/03/28 02:52:02;;;;;;;3.60;2.30;;;;;;;;;;4982732;28;20042;-58
2023/03/28 02:54:33;;;;;;;4.65;2.25;;;;;;;;;;4982499;28;20034;-57
2023/03/28 02:57:05;;;;;;;5.03;2.38;;;;;;;;;;4982486;28;20101;-56
2023/03/28 02:59:30;;;;;;;4.38;2.65;;;;;;;;;;4982095;28;20030;-55
2023/03/28 03:01:55;;;;;;;4.80;2.58;;;;;;;;;;4982552;28;20042;-54
2023/03/28 03:04:21;;;;;;;3.67;2.40;;;;;;;;;;4982348;28;20022;-57
2023/03/28 03:06:47;;;;;;;8.90;2.60;;;;;;;;;;4982461;28;20069;-57
2023/03/28 03:09:13;;;;;;;4.72;2.20;;;;;;;;;;4934220;28;20062;-57
2023/03/28 03:11:38;;;;;;;5.75;2.42;;;;;;;;;;4982219;28;20062;-54
2023/03/28 03:14:03;;;;;;;7.25;2.53;;;;;;;;;;4982539;28;20536;-55
2023/03/28 03:16:29;;;;;;;4.60;2.75;;;;;;;;;;4982277;28;20089;-58
2023/03/28 03:18:55;;;;;;;4.13;2.35;;;;;;;;;;4981821;28;20431;-57
2023/03/28 03:21:22;;;;;;;6.32;2.72;;;;;;;;;;4981807;28;20381;-53
2023/03/28 03:23:47;;;;;;;6.55;2.90;;;;;;;;;;4982008;28;20034;-55
2023/03/28 03:26:13;;;;;;;6.00;2.72;;;;;;;;;;4982045;28;20019;-55
2023/03/28 03:28:38;;;;;;;4.55;2.33;;;;;;;;;;5005983;28;20037;-56
2023/03/28 03:31:03;;;;;;;5.15;2.22;;;;;;;;;;5023836;28;20459;-53
2023/03/28 03:33:29;;;;;;;5.55;2.80;;;;;;;;;;5023623;28;20050;-56
2023/03/28 03:35:54;;;;;;;8.57;2.90;;;;;;;;;;5038025;28;20042;-54
2023/03/28 03:38:19;;;;;;;4.07;2.60;;;;;;;;;;5024389;28;20467;-54
2023/03/28 03:40:45;;;;;;;4.30;2.40;;;;;;;;;;5024166;28;20048;-57
2023/03/28 03:43:10;;;;;;;4.45;2.13;;;;;;;;;;5023954;28;20462;-55
2023/03/28 03:45:36;;;;;;;4.55;2.78;;;;;;;;;;5023813;28;20122;-55
2023/03/28 03:48:02;;;;;;;5.80;2.15;;;;;;;;;;5024232;28;20048;-55
2023/03/28 03:50:27;;;;;;;9.65;2.95;;;;;;;;;;5023684;28;20021;-58
2023/03/28 03:52:53;;;;;;;5.22;2.78;;;;;;;;;;5024062;28;20494;-57
2023/03/28 03:55:19;;;;;;;5.82;2.50;;;;;;;;;;5038006;28;20026;-54
2023/03/28 03:57:45;;;;;;;6.13;3.00;;;;;;;;;;5023964;28;20014;-59
2023/03/28 04:00:11;;;;;;;7.47;2.85;;;;;;;;;;5023703;28;20494;-55
2023/03/28 04:02:37;;;;;;;5.07;2.70;;;;;;;;;;5023935;28;20018;-58
2023/03/28 04:05:02;;;;;;;5.25;2.45;;;;;;;;;;5023612;28;20171;-57
2023/03/28 04:07:27;;;;;;;6.18;2.80;;;;;;;;;;5023862;28;20531;-54
2023/03/28 04:09:52;;;;;;;3.80;2.65;;;;;;;;;;5023689;28;20023;-58
2023/03/28 04:12:18;;;;;;;11.25;3.10;;;;;;;;;;5023946;28;20529;-57
2023/03/28 04:14:43;;;;;;;5.72;3.00;;;;;;;;;;5023808;28;20044;-55
2023/03/28 04:17:08;;;;;;;5.05;2.90;;;;;;;;;;5023385;28;20612;-55
2023/03/28 04:19:34;;;;;;;4.10;2.53;;;;;;;;;;5023438;28;20060;-55
2023/03/28 04:21:59;;;;;;;8.25;4.05;;;;;;;;;;5022987;28;20021;-54
2023/03/28 04:24:24;;;;;;;10.52;3.80;;;;;;;;;;5023923;28;20429;-55
2023/03/28 04:26:54;;;;;;;6.30;3.15;;;;;;;;;;5023794;28;20061;-57
2023/03/28 04:29:24;;;;;;;8.40;3.17;;;;;;;;;;5024020;28;20049;-57
2023/03/28 04:31:49;;;;;;;6.20;3.25;;;;;;;;;;5027420;28;20407;-56
2023/03/28 04:34:15;;;;;;;6.45;2.92;;;;;;;;;;5027365;28;20041;-57
2023/03/28 04:36:40;;;;;;;6.50;3.45;;;;;;;;;;5027687;28;20018;-54
2023/03/28 04:39:07;;;;;;;6.63;3.40;;;;;;;;;;5027045;28;20288;-58
2023/03/28 04:41:33;;;;;;;5.72;3.22;;;;;;;;;;5026885;28;20025;-59
2023/03/28 04:43:58;;;;;;;9.95;3.38;;;;;;;;;;5027381;28;20087;-58
2023/03/28 04:46:24;;;;;;;11.07;4.18;;;;;;;;;;5027273;28;20494;-56
2023/03/28 04:48:49;;;;;;;9.82;3.63;;;;;;;;;;5027239;28;20037;-56
2023/03/28 04:51:14;;;;;;;6.80;3.38;;;;;;;;;;5026766;28;20027;-56
2023/03/28 04:53:40;;;;;;;6.40;3.70;;;;;;;;;;5026889;28;20033;-57
2023/03/28 04:56:07;;;;;;;12.45;4.28;;;;;;;;;;5026988;28;20101;-58
2023/03/28 04:58:33;;;;;;;8.70;4.18;;;;;;;;;;5026725;28;20028;-58
2023/03/28 05:01:02;;;;;;;9.68;4.15;;;;;;;;;;5026009;28;20104;-57
2023/03/28 05:03:27;;;;;;;6.38;4.10;;;;;;;;;;5025107;28;20116;-58
2023/03/28 05:05:53;;;;;;;9.98;4.55;;;;;;;;;;5026487;28;20204;-57
2023/03/28 05:08:21;;;;;;;10.18;4.30;;;;;;;;;;5026491;28;20028;-55
2023/03/28 05:10:46;;;;;;;10.63;4.15;;;;;;;;;;5026928;28;20455;-57
2023/03/28 05:13:12;;;;;;;6.70;4.63;;;;;;;;;;5026361;28;20029;-59
2023/03/28 05:15:37;;;;;;;11.07;4.07;;;;;;;;;;5026492;28;20025;-54
2023/03/28 05:18:03;;;;;;;8.82;4.38;;;;;;;;;;5026211;28;20021;-53
2023/03/28 05:20:28;;;;;;;8.30;4.80;;;;;;;;;;5026480;28;20528;-57
2023/03/28 05:22:54;;;;;;;8.30;4.97;;;;;;;;;;5026215;28;20022;-54
2023/03/28 05:25:19;;;;;;;15.77;6.95;;;;;;;;;;5026332;28;20490;-58
2023/03/28 05:27:44;;;;;;;13.75;5.78;;;;;;;;;;5026228;28;20100;-57
2023/03/28 05:30:10;;;;;;;8.98;4.90;;;;;;;;;;5025988;28;20163;-57
2023/03/28 05:32:38;;;;;;;9.02;4.85;;;;;;;;;;5025935;28;20111;-58
2023/03/28 05:35:06;;;;;;;11.07;4.68;;;;;;;;;;5026201;28;20045;-57
2023/03/28 05:37:31;;;;;;;9.63;4.45;;;;;;;;;;5024396;28;20079;-56
2023/03/28 05:39:57;;;;;;;8.43;3.72;;;;;;;;;;5025214;28;20030;-54
2023/03/28 05:42:22;;;;;;;5.47;4.03;;;;;;;;;;5025557;28;20545;-59
2023/03/28 05:44:47;;;;;;;42.00;13.25;;;;;;;;;;5026479;28;20116;-58
2023/03/28 05:47:13;;;;;;;11.52;5.65;;;;;;;;;;5023485;28;20057;-57
2023/03/28 05:49:38;;;;;;;6.55;5.20;;;;;;;;;;5023911;28;20018;-54
2023/03/28 05:52:03;;;;;;;10.30;4.07;;;;;;;;;;5025570;28;20029;-60
2023/03/28 05:54:29;;;;;;;8.07;4.18;;;;;;;;;;5026039;28;20013;-60
2023/03/28 05:56:54;;;;;;;5.28;4.10;;;;;;;;;;4998960;28;20041;-60
2023/03/28 05:59:23;;;;;;;5.32;3.58;;;;;;;;;;5016768;28;20392;-60
2023/03/28 06:01:51;;;;;;;6.60;3.90;;;;;;;;;;5017269;28;20030;-60
2023/03/28 06:04:16;;;;;;;7.75;5.05;;;;;;;;;;5015661;28;20044;-60
2023/03/28 06:06:42;;;;;;;6.72;3.88;;;;;;;;;;5017942;28;20071;-61
2023/03/28 06:09:07;;;;;;;4.85;3.90;;;;;;;;;;5029800;28;20501;-56
2023/03/28 06:11:33;;;;;;;7.10;4.00;;;;;;;;;;5017793;28;20046;-59
2023/03/28 06:13:58;;;;;;;11.45;6.03;;;;;;;;;;5017604;28;20048;-62
2023/03/28 06:16:23;;;;;;;8.13;3.58;;;;;;;;;;5033232;28;20104;-62
2023/03/28 06:18:48;;;;;;;6.90;3.92;;;;;;;;;;5028687;28;20033;-60
2023/03/28 06:21:14;;;;;;;40.80;19.50;;;;;;;;;;5044336;28;20028;-61
2023/03/28 06:23:39;;;;;;;5.20;3.85;;;;;;;;;;5031948;28;20033;-60
2023/03/28 06:26:05;;;;;;;4.60;3.22;;;;;;;;;;5019027;28;20014;-60
2023/03/28 06:28:30;;;;;;;6.72;3.63;;;;;;;;;;5038009;28;20765;-62
2023/03/28 06:30:56;;;;;;;7.57;3.22;;;;;;;;;;5032925;28;20042;-59
2023/03/28 06:33:21;;;;;;;6.05;4.00;;;;;;;;;;5024086;28;20037;-60
2023/03/28 06:35:46;;;;;;;5.35;3.88;;;;;;;;;;5022643;28;20103;-60
2023/03/28 06:38:12;;;;;;;5.93;4.03;;;;;;;;;;5020327;28;20689;-60
2023/03/28 06:40:37;;;;;;;5.75;3.40;;;;;;;;;;5021004;28;20043;-60
2023/03/28 06:43:02;;;;;;;4.85;3.22;;;;;;;;;;5021279;28;20047;-57
2023/03/28 06:45:27;;;;;;;6.95;3.83;;;;;;;;;;5025526;28;20030;-61
2023/03/28 06:47:53;;;;;;;8.13;3.90;;;;;;;;;;5016362;28;20025;-64
2023/03/28 06:50:18;;;;;;;6.20;3.17;;;;;;;;;;5024960;28;20056;-62
2023/03/28 06:52:44;;;;;;;4.30;3.22;;;;;;;;;;5024173;28;20328;-63
2023/03/28 06:55:09;;;;;;;5.07;3.00;;;;;;;;;;5005990;28;20036;-63
2023/03/28 06:57:35;;;;;;;5.90;3.50;;;;;;;;;;5023732;28;20017;-63
2023/03/28 07:00:00;;;;;;;4.63;3.10;;;;;;;;;;5024940;28;20114;-62
2023/03/28 07:02:25;;;;;;;4.25;3.15;;;;;;;;;;5024374;28;20494;-60
2023/03/28 07:04:50;;;;;;;4.55;2.80;;;;;;;;;;5024526;28;20021;-63
2023/03/28 07:07:16;;;;;;;10.50;3.20;;;;;;;;;;5024300;28;20026;-54
2023/03/28 07:09:41;;;;;;;4.57;2.83;;;;;;;;;;5022942;28;20064;-53
2023/03/28 07:12:06;;;;;;;4.32;2.97;;;;;;;;;;5023269;28;20499;-50
2023/03/28 07:14:32;;;;;;;7.22;3.17;;;;;;;;;;5022544;28;20064;-53
2023/03/28 07:16:57;;;;;;;3.60;2.90;;;;;;;;;;5019697;28;20021;-50
2023/03/28 07:19:23;;;;;;;9.05;3.33;;;;;;;;;;5023859;28;20026;-50
2023/03/28 07:21:48;;;;;;;4.47;2.70;;;;;;;;;;5021960;28;20031;-52
2023/03/28 07:24:14;;;;;;;3.97;3.08;;;;;;;;;;5023676;28;20360;-50
2023/03/28 07:26:39;;;;;;;3.85;2.78;;;;;;;;;;5023640;28;20654;-51
2023/03/28 07:29:05;;;;;;;7.00;2.72;;;;;;;;;;5023728;28;20025;-56
2023/03/28 07:31:30;;;;;;;3.97;2.25;;;;;;;;;;5023731;28;20037;-56
2023/03/28 07:33:56;;;;;;;3.88;2.65;;;;;;;;;;5014780;28;20064;-55
2023/03/28 07:36:22;;;;;;;5.35;2.60;;;;;;;;;;5009916;28;20032;-57
2023/03/28 07:38:48;;;;;;;4.80;2.60;;;;;;;;;;5014095;28;20387;-54
2023/03/28 07:41:14;;;;;;;5.38;2.50;;;;;;;;;;5015056;28;20380;-57
2023/03/28 07:43:39;;;;;;;4.07;2.90;;;;;;;;;;5021625;28;20063;-54
2023/03/28 07:46:06;;;;;;;3.42;2.22;;;;;;;;;;5023218;28;20030;-55
2023/03/28 07:48:33;;;;;;;2.90;2.15;;;;;;;;;;5017575;28;20037;-54
2023/03/28 07:50:59;;;;;;;3.55;2.40;;;;;;;;;;5011909;28;20036;-55
2023/03/28 07:53:24;;;;;;;4.82;2.13;;;;;;;;;;5008637;28;20675;-54
2023/03/28 07:55:50;;;;;;;2.50;2.20;;;;;;;;;;5021463;28;20036;-55
2023/03/28 07:58:15;;;;;;;4.00;2.00;;;;;;;;;;5011602;28;20032;-52
2023/03/28 08:00:41;;;;;;;4.18;2.35;;;;;;;;;;5009028;28;20029;-51
2023/03/28 08:03:07;;;;;;;6.03;2.10;;;;;;;;;;5002756;28;20063;-56
2023/03/28 08:05:36;;;;;;;5.00;2.28;;;;;;;;;;5007763;28;20049;-52
2023/03/28 08:08:02;;;;;;;4.90;2.20;;;;;;;;;;5012007;28;20045;-56
2023/03/28 08:10:27;;;;;;;4.28;2.45;;;;;;;;;;5014569;28;20271;-54
2023/03/28 08:12:53;;;;;;;3.05;2.45;;;;;;;;;;5022543;28;20032;-52
2023/03/28 08:15:18;;;;;;;6.53;2.30;;;;;;;;;;5024494;28;20021;-49
2023/03/28 08:17:44;;;;;;;4.93;2.10;;;;;;;;;;5037264;28;20025;-53
2023/03/28 08:20:10;;;;;;;4.82;2.60;;;;;;;;;;5020677;28;20112;-53
2023/03/28 08:22:35;;;;;;;4.53;2.45;;;;;;;;;;5028414;28;20352;-52
2023/03/28 08:25:00;;;;;;;4.93;2.25;;;;;;;;;;5019605;28;20060;-47
2023/03/28 08:27:26;;;;;;;3.67;2.20;;;;;;;;;;5025656;28;20045;-53
2023/03/28 08:29:51;;;;;;;4.60;2.15;;;;;;;;;;5031703;28;20479;-52
2023/03/28 08:32:16;;;;;;;3.72;2.08;;;;;;;;;;5022616;28;20050;-48
2023/03/28 08:34:42;;;;;;;4.78;2.00;;;;;;;;;;5039231;28;20025;-50
2023/03/28 08:37:07;;;;;;;5.80;2.45;;;;;;;;;;5028833;28;20049;-48
2023/03/28 08:39:33;;;;;;;4.97;2.25;;;;;;;;;;5024144;28;20360;-54
2023/03/28 08:42:18;;;;;;;3.30;2.00;;;;;;;;;;5035576;28;20027;-53
2023/03/28 08:44:43;;;;;;;2.45;1.80;;;;;;;;;;5026399;28;20036;-47
2023/03/28 08:47:19;;;;;;;2.60;2.00;;;;;;;;;;5024918;28;20025;-54
2023/03/28 08:49:47;;;;;;;2.25;1.75;;;;;;;;;;5026416;28;20056;-53
2023/03/28 08:52:14;;;;;;;3.25;1.90;;;;;;;;;;5029041;28;20024;-51
2023/03/28 08:54:56;;;;;;;5.40;1.80;;;;;;;;;;5018097;28;20056;-51
2023/03/28 08:57:24;;;;;;;2.15;1.55;;;;;;;;;;5010557;28;20026;-51
2023/03/28 08:59:58;;;;;;;3.70;1.70;;;;;;;;;;5017675;28;20052;-55
2023/03/28 09:02:25;;;;;;;2.30;1.40;;;;;;;;;;5020391;28;20030;-59
2023/03/28 09:04:51;;;;;;;6.55;2.08;;;;;;;;;;5014496;28;20079;-59
2023/03/28 09:07:25;;;;;;;5.28;2.58;;;;;;;;;;5025828;28;20029;-55
2023/03/28 09:09:51;;;;;;;4.32;2.53;;;;;;;;;;5013751;28;20026;-51
2023/03/28 09:12:24;;;;;;;6.28;2.55;;;;;;;;;;5012255;28;20099;-57
2023/03/28 09:15:08;;;;;;;4.05;2.13;;;;;;;;;;5015104;28;20540;-59
2023/03/28 09:17:36;;;;;;;4.18;2.00;;;;;;;;;;5027359;28;20026;-63
2023/03/28 09:20:20;;;;;;;6.57;2.30;;;;;;;;;;5020668;28;20056;-63
2023/03/28 09:23:08;;;;;;;6.72;2.95;;;;;;;;;;5022300;28;20758;-63
2023/03/28 09:25:40;;;;;;;8.93;3.35;;;;;;;;;;5001905;28;20038;-63
2023/03/28 09:28:11;;;;;;;6.45;2.58;;;;;;;;;;5003632;28;20046;-64
2023/03/28 09:30:39;;;;;;;8.75;4.00;;;;;;;;;;5003203;28;20170;-64
2023/03/28 09:33:09;;;;;;;5.63;2.33;;;;;;;;;;5002525;28;20053;-60
2023/03/28 09:35:35;;;;;;;5.05;2.05;;;;;;;;;;5001730;28;20344;-61
2023/03/28 09:38:05;;;;;;;2.80;1.90;;;;;;;;;;5002384;28;20040;-57
2023/03/28 09:40:33;;;;;;;1.88;1.40;;;;;;;;;;5001615;28;20033;-57
2023/03/28 09:43:10;;;;;;;3.33;1.42;;;;;;;;;;4997879;28;20507;-59
2023/03/28 09:45:36;;;;;;;1.77;1.52;;;;;;;;;;5002244;28;20029;-59
2023/03/28 09:48:02;;;;;;;6.00;1.63;;;;;;;;;;5001767;28;20506;-60
2023/03/28 09:50:27;;;;;;;3.35;1.48;;;;;;;;;;4986377;28;20034;-60
2023/03/28 09:52:55;;;;;;;3.90;1.70;;;;;;;;;;5002731;28;20028;-61
2023/03/28 09:55:22;;;;;;;2.38;1.55;;;;;;;;;;5002304;28;20049;-60
2023/03/28 09:58:00;;;;;;;3.92;1.55;;;;;;;;;;4969711;28;20096;-58
2023/03/28 10:00:25;;;;;;;4.15;1.50;;;;;;;;;;5002886;28;20370;-59
2023/03/28 10:02:51;;;;;;;2.08;1.50;;;;;;;;;;5016121;28;20333;-60
2023/03/28 10:05:31;;;;;;;3.47;1.55;;;;;;;;;;5020565;28;20032;-58
2023/03/28 10:07:57;;;;;;;4.38;1.67;;;;;;;;;;5017094;28;20447;-57
2023/03/28 10:10:23;;;;;;;2.53;1.48;;;;;;;;;;5026129;28;20418;-58
2023/03/28 10:12:54;;;;;;;5.70;1.27;;;;;;;;;;5020428;28;20387;-60
2023/03/28 10:15:43;;;;;;;4.25;1.40;;;;;;;;;;5019955;28;20022;-59
2023/03/28 10:18:14;;;;;;;1.55;1.23;;;;;;;;;;4976559;28;20066;-60
2023/03/28 10:20:40;;;;;;;1.63;1.00;;;;;;;;;;4976103;28;20121;-60
2023/03/28 10:23:05;;;;;;;1.50;0.85;;;;;;;;;;4978243;28;20045;-56
2023/03/28 10:25:34;;;;;;;3.15;1.00;;;;;;;;;;4979109;28;20682;-60
2023/03/28 10:28:00;;;;;;;1.95;1.10;;;;;;;;;;4976968;28;20029;-60
2023/03/28 10:30:26;;;;;;;8.50;1.05;;;;;;;;;;4977169;28;20046;-60
2023/03/28 10:33:20;;;;;;;2.00;1.52;;;;;;;;;;4977952;28;20523;-59
2023/03/28 10:36:06;;;;;;;1.50;0.80;;;;;;;;;;4934737;29;20043;-60
2023/03/28 10:38:51;;;;;;;1.70;1.00;;;;;;;;;;4943237;29;20019;-58
2023/03/28 10:41:24;;;;;;;1.63;1.17;;;;;;;;;;4940443;29;20047;-60
2023/03/28 10:43:49;;;;;;;2.90;1.23;;;;;;;;;;4940696;28;20043;-60
2023/03/28 10:46:17;;;;;;;2.40;1.38;;;;;;;;;;4941612;28;20046;-61
2023/03/28 10:49:03;;;;;;;1.10;1.00;;;;;;;;;;4943024;29;20433;-60
2023/03/28 10:51:30;;;;;;;3.75;0.80;;;;;;;;;;4943237;28;20033;-60
2023/03/28 10:54:07;;;;;;;2.28;1.17;;;;;;;;;;4951521;28;20170;-61
2023/03/28 10:56:40;;;;;;;1.02;0.95;;;;;;;;;;5009302;28;20024;-61
2023/03/28 10:59:05;;;;;;;3.78;1.40;;;;;;;;;;5014586;28;20121;-62
2023/03/28 11:01:39;;;;;;;4.85;1.00;;;;;;;;;;5006646;28;20036;-61
2023/03/28 11:04:14;;;;;;;3.95;1.02;;;;;;;;;;5003521;28;20081;-60
2023/03/28 11:06:48;;;;;;;2.38;1.25;;;;;;;;;;4995278;28;20163;-60
2023/03/28 11:09:44;;;;;;;2.28;1.13;;;;;;;;;;5000135;28;20029;-61
2023/03/28 11:12:33;;;;;;;1.55;1.05;;;;;;;;;;4958641;28;20038;-61
2023/03/28 11:15:07;;;;;;;1.60;0.90;;;;;;;;;;4977335;28;20118;-61
2023/03/28 11:17:51;;;;;;;1.20;1.10;;;;;;;;;;4979528;28;20030;-57
2023/03/28 11:20:45;;;;;;;1.77;1.13;;;;;;;;;;4978024;28;20343;-60
2023/03/28 11:23:19;;;;;;;4.13;1.17;;;;;;;;;;4904344;29;20893;-62
2023/03/28 11:25:45;;;;;;;5.15;1.35;;;;;;;;;;4903254;29;20029;-62
2023/03/28 11:28:16;;;;;;;1.92;1.30;;;;;;;;;;4902965;29;20024;-61
2023/03/28 11:30:45;;;;;;;4.00;1.20;;;;;;;;;;4903215;29;20044;-63
2023/03/28 11:33:13;;;;;;;3.63;1.23;;;;;;;;;;4920553;29;20500;-62
2023/03/28 11:35:58;;;;;;;1.33;0.93;;;;;;;;;;4896192;29;20040;-63
2023/03/28 11:38:43;;;;;;;3.65;1.40;;;;;;;;;;4906735;29;20038;-62
2023/03/28 11:41:11;;;;;;;1.33;0.98;;;;;;;;;;4919403;29;20755;-58
2023/03/28 11:43:55;;;;;;;2.42;1.10;;;;;;;;;;4917306;29;20042;-57
2023/03/28 11:46:25;;;;;;;9.40;1.45;;;;;;;;;;4913545;29;20541;-56
2023/03/28 11:48:54;;;;;;;1.95;1.10;;;;;;;;;;4931918;28;20076;-56
2023/03/28 11:51:25;;;;;;;4.25;1.05;;;;;;;;;;4934406;28;20031;-55
2023/03/28 11:53:56;;;;;;;9.50;1.30;;;;;;;;;;4935829;28;20051;-57
2023/03/28 11:56:22;;;;;;;1.23;0.85;;;;;;;;;;4929835;28;20027;-59
2023/03/28 11:58:49;;;;;;;2.10;1.08;;;;;;;;;;4975793;28;20028;-59
2023/03/28 12:01:17;;;;;;;0.80;0.80;;;;;;;;;;5037481;28;20044;-58
2023/03/28 12:03:42;;;;;;;2.40;1.25;;;;;;;;;;5024741;28;20017;-59
2023/03/28 12:06:30;;;;;;;3.33;1.10;;;;;;;;;;5033751;28;20086;-58
2023/03/28 12:09:04;;;;;;;1.60;1.30;;;;;;;;;;5017104;28;20090;-56
2023/03/28 12:11:32;;;;;;;5.00;1.17;;;;;;;;;;5021269;28;20027;-59
2023/03/28 12:14:21;;;;;;;4.75;2.88;;;;;;;;;;5035372;28;20079;-62
2023/03/28 12:16:48;;;;;;;4.50;1.38;;;;;;;;;;5037286;28;20021;-61
2023/03/28 12:19:17;;;;;;;4.25;1.60;;;;;;;;;;5029531;28;20104;-60
2023/03/28 12:21:44;;;;;;;6.60;1.52;;;;;;;;;;5023649;28;20094;-60
2023/03/28 12:24:24;;;;;;;4.65;1.20;;;;;;;;;;5028705;28;20425;-60
2023/03/28 12:26:50;;;;;;;3.05;1.27;;;;;;;;;;5018584;28;20025;-59
2023/03/28 12:29:18;;;;;;;6.13;1.98;;;;;;;;;;5029270;28;20071;-61
2023/03/28 12:31:46;;;;;;;4.32;1.55;;;;;;;;;;5025553;28;20057;-56
2023/03/28 12:34:26;;;;;;;61.93;16.40;;;;;;;;;;5045509;28;20052;-59
2023/03/28 12:37:00;;;;;;;158.80;64.05;;;;;;;;;;5016214;28;20028;-59
2023/03/28 12:39:42;;;;;;;1.92;1.40;;;;;;;;;;5008961;28;20026;-61
2023/03/28 12:42:09;;;;;;;5.78;1.35;;;;;;;;;;5040656;28;20521;-63
2023/03/28 12:44:43;;;;;;;2.15;1.17;;;;;;;;;;5027094;28;20056;-61
2023/03/28 12:47:16;;;;;;;2.95;1.40;;;;;;;;;;5026553;28;20126;-61
2023/03/28 12:49:42;;;;;;;6.97;1.25;;;;;;;;;;5025558;28;20033;-61
2023/03/28 12:52:11;;;;;;;6.93;1.15;;;;;;;;;;5025747;28;20398;-60
2023/03/28 12:54:51;;;;;;;2.13;1.00;;;;;;;;;;5025648;28;20443;-62
2023/03/28 12:57:39;;;;;;;11.50;2.75;;;;;;;;;;5026624;28;20152;-59
2023/03/28 13:00:13;;;;;;;2.42;0.95;;;;;;;;;;5026490;28;20104;-60
2023/03/28 13:02:38;;;;;;;12.82;3.40;;;;;;;;;;5025551;28;20463;-58
2023/03/28 13:05:07;;;;;;;23.35;2.45;;;;;;;;;;5024382;28;20022;-60
2023/03/28 13:07:40;;;;;;;1.15;1.02;;;;;;;;;;5030716;28;20044;-62
2023/03/28 13:10:14;;;;;;;4.05;1.08;;;;;;;;;;5030623;28;20034;-63
2023/03/28 13:12:43;;;;;;;3.08;2.10;;;;;;;;;;5031121;28;20030;-63
2023/03/28 13:15:11;;;;;;;4.57;2.17;;;;;;;;;;5029614;28;20075;-64
2023/03/28 13:17:40;;;;;;;4.43;2.83;;;;;;;;;;5030500;28;20061;-63
2023/03/28 13:20:23;;;;;;;36.72;12.43;;;;;;;;;;5028377;28;20025;-62
2023/03/28 13:22:50;;;;;;;13.57;4.65;;;;;;;;;;5026352;28;20110;-63
2023/03/28 13:25:21;;;;;;;12.73;3.92;;;;;;;;;;5023983;28;20526;-66
2023/03/28 13:27:47;;;;;;;12.27;3.10;;;;;;;;;;5023426;28;20430;-64
2023/03/28 13:30:17;;;;;;;4.18;2.35;;;;;;;;;;5026840;28;20107;-62
2023/03/28 13:32:48;;;;;;;7.68;3.00;;;;;;;;;;5021983;28;20107;-61
2023/03/28 13:35:32;;;;;;;4.28;1.75;;;;;;;;;;5007068;28;20030;-61
2023/03/28 13:38:12;;;;;;;8.77;1.50;;;;;;;;;;5022694;28;20037;-64
2023/03/28 13:40:37;;;;;;;;;;;;;;;;;;5028356;28;20029;-62
2023/03/28 13:43:02;;;;;;;4.40;1.40;;;;;;;;;;5024891;28;19951;-62
2023/03/28 13:45:28;;;;;;;4.30;0.93;;;;;;;;;;5022073;28;20587;-60
2023/03/28 13:47:53;;;;;;;1.60;1.30;;;;;;;;;;5031863;28;20527;-64
2023/03/28 13:50:25;;;;;;;8.05;2.78;;;;;;;;;;5018557;28;20087;-57
2023/03/28 13:52:50;;;;;;;26.33;9.68;;;;;;;;;;5022566;28;20036;-59
2023/03/28 13:55:25;;;;;;;552.03;156.75;;;;;;;;;;5022570;28;20029;-58
2023/03/28 13:57:51;;;;;;;839.65;223.68;;;;;;;;;;5026330;28;20088;-58
2023/03/28 14:00:19;;;;;;;663.55;181.88;;;;;;;;;;5028113;28;20139;-58
2023/03/28 14:02:45;;;;;;;641.17;176.20;;;;;;;;;;5016693;28;20029;-60
2023/03/28 14:05:12;;;;;;;655.47;179.52;;;;;;;;;;5016089;28;20033;-56
2023/03/28 14:07:38;;;;;;;787.10;195.35;;;;;;;;;;5024000;28;20029;-58
2023/03/28 14:10:18;;;;;;;872.63;215.48;;;;;;;;;;5022457;28;20445;-59
2023/03/28 14:12:43;;;;;;;;;;;;;;;;;;5019187;28;20044;-60
2023/03/28 14:15:12;;;;;;;621.20;173.23;;;;;;;;;;5035143;28;20599;-59
2023/03/28 14:17:38;;;;;;;625.40;183.88;;;;;;;;;;5024499;28;20350;-59
2023/03/28 14:20:04;;;;;;;642.30;186.98;;;;;;;;;;5027365;28;20116;-59
2023/03/28 14:22:31;;;;;;;647.85;192.35;;;;;;;;;;5021167;28;20026;-59
2023/03/28 14:24:57;;;;;;;657.28;177.27;;;;;;;;;;5027921;28;20072;-66
2023/03/28 14:27:29;;;;;;;663.38;179.95;;;;;;;;;;5021955;28;20345;-57
2023/03/28 14:29:55;;;;;;;628.45;193.05;;;;;;;;;;5024348;28;20050;-52
2023/03/28 14:32:31;;;;;;;653.90;194.10;;;;;;;;;;5009533;28;20042;-48
2023/03/28 14:35:16;;;;;;;621.38;180.27;;;;;;;;;;5014341;28;20112;-52
2023/03/28 14:37:51;;;;;;;665.05;196.80;;;;;;;;;;5021786;28;20029;-55
2023/03/28 14:40:18;;;;;;;703.75;207.80;;;;;;;;;;5024456;28;20036;-52
2023/03/28 14:42:43;;;;;;;563.38;129.50;;;;;;;;;;5021454;28;20076;-52
2023/03/28 14:45:12;;;;;;;4.18;1.70;;;;;;;;;;5024207;28;20447;-54
2023/03/28 14:47:38;;;;;;;4.88;2.00;;;;;;;;;;5024422;28;20103;-54
2023/03/28 14:50:04;;;;;;;27.95;5.38;;;;;;;;;;5024521;28;20029;-53